Terminal Aerodrome Forecast

De Wikipedia, la enciclopedia libre
Saltar a: navegación, búsqueda

El TAF (o TAFOR) es un pronóstico del tiempo meteorológico que va a hacer en un aeropuerto (Terminal Aerodrome Forecasts)

La clave de meteorológica aeronáutica que se usa es similar al METAR. Son pronósticos para determinado aeródromo con un periodo de predicción de 9 a 24 horas dependiendo del país o tipo.

Ejemplos de TAF:

  • TAF LEMD 181700Z 1818/1918 02004KT 9999 SCT020 BKN040 TX10/1914Z TN02/1820Z TEMPO 1818/1910 RA BKN020 TEMPO 1822/1909 3000 RA BR OVC010=


  • TAF LEBL 181700Z 1818/1918 34008KT 9999 SCT025 TX13/1914Z TN04/1902Z TEMPO 1818/1910 07008KT TEMPO 1900/1918 RA=


  • TAF LEPA 181700Z 1818/1918 08005KT 9999 FEW015 SCT030 BKN045 TX13/1912Z TN08/1823Z PROB30 TEMPO 1818/1821 RA TEMPO 1821/1916 RA BKN014 BECMG 1906/1908 20010KT BECMG 1916/1918 33008KT=


  • TAF LFPG 181700Z 1818/1924 18010G20KT 3000 -SN BKN006 TEMPO 1818/1820 1000 SN BKN004 BECMG 1822/1824 20005KT 7000 NSW SCT010 BECMG 1907/1909 16005KTBECMG 1909/1911 3000 -SN BKN006 PROB40 TEMPO 1914/1916 1000 SN BKN004 BECMG 1918/1920 30010KT 9999 NSW SCT010 TX01/1901Z=


Enlaces externos[editar]